createdAt,value
2024-05-09T00:00:06.805Z,512.00
2024-05-09T00:01:05.914Z,512.00
2024-05-09T00:02:05.990Z,512.00
2024-05-09T00:03:06.118Z,511.00
2024-05-09T00:04:06.126Z,513.00
2024-05-09T00:05:06.298Z,515.00
2024-05-09T00:06:06.187Z,515.00
2024-05-09T00:07:06.157Z,512.00
2024-05-09T00:08:06.309Z,509.00
2024-05-09T00:09:06.205Z,509.00
2024-05-09T00:10:09.244Z,511.00
2024-05-09T00:11:07.345Z,511.00
2024-05-09T00:12:06.402Z,511.00
2024-05-09T00:13:06.649Z,511.00
2024-05-09T00:14:06.303Z,511.00
2024-05-09T00:15:06.255Z,510.00
2024-05-09T00:16:06.280Z,506.00
2024-05-09T00:17:06.383Z,505.00
2024-05-09T00:18:07.170Z,505.00
2024-05-09T00:19:07.035Z,505.00
2024-05-09T00:20:14.274Z,505.00
2024-05-09T00:21:07.446Z,508.00
2024-05-09T00:22:06.323Z,506.00
2024-05-09T00:23:06.387Z,508.00
2024-05-09T00:24:06.327Z,507.00
2024-05-09T00:25:06.333Z,509.00
2024-05-09T00:26:06.436Z,507.00
2024-05-09T00:27:06.424Z,509.00
2024-05-09T00:28:06.372Z,510.00
2024-05-09T00:29:06.397Z,514.00
2024-05-09T00:30:07.410Z,514.00
2024-05-09T00:31:06.413Z,516.00
2024-05-09T00:32:06.455Z,515.00
2024-05-09T00:33:07.892Z,515.00
2024-05-09T00:34:06.471Z,517.00
2024-05-09T00:35:06.438Z,517.00
2024-05-09T00:36:06.385Z,519.00
2024-05-09T00:37:06.414Z,519.00
2024-05-09T00:38:06.665Z,520.00
2024-05-09T00:39:06.409Z,520.00
2024-05-09T00:40:09.552Z,514.00
2024-05-09T00:41:07.521Z,510.00
2024-05-09T00:42:06.405Z,510.00
2024-05-09T00:43:06.510Z,511.00
2024-05-09T00:44:06.423Z,512.00
2024-05-09T00:45:06.418Z,513.00
2024-05-09T00:46:06.413Z,513.00
2024-05-09T00:47:06.668Z,512.00
2024-05-09T00:48:07.442Z,514.00
2024-05-09T00:49:06.464Z,513.00
2024-05-09T00:50:10.128Z,515.00
2024-05-09T00:51:07.598Z,513.00
2024-05-09T00:52:06.974Z,515.00
2024-05-09T00:53:06.828Z,511.00
2024-05-09T00:54:06.499Z,510.00
2024-05-09T00:55:06.500Z,512.00
2024-05-09T00:56:06.573Z,509.00
2024-05-09T00:57:06.551Z,508.00
2024-05-09T00:58:06.552Z,511.00
2024-05-09T00:59:06.652Z,511.00
2024-05-09T01:00:12.219Z,510.00
2024-05-09T01:01:07.600Z,509.00
2024-05-09T01:02:06.697Z,508.00
2024-05-09T01:03:06.889Z,509.00
2024-05-09T01:04:06.899Z,505.00
2024-05-09T01:05:06.635Z,508.00
2024-05-09T01:06:06.644Z,505.00
2024-05-09T01:07:06.641Z,504.00
2024-05-09T01:08:06.722Z,507.00
2024-05-09T01:09:06.626Z,506.00
2024-05-09T01:10:13.790Z,506.00
2024-05-09T01:11:07.699Z,511.00
2024-05-09T01:12:06.764Z,506.00
2024-05-09T01:13:07.143Z,507.00
2024-05-09T01:14:06.661Z,505.00
2024-05-09T01:15:06.623Z,507.00
2024-05-09T01:16:06.664Z,509.00
2024-05-09T01:17:06.821Z,503.00
2024-05-09T01:18:06.918Z,505.00
2024-05-09T01:19:06.766Z,507.00
2024-05-09T01:20:10.776Z,506.00
2024-05-09T01:21:07.697Z,506.00
2024-05-09T01:22:06.720Z,507.00
2024-05-09T01:23:06.763Z,507.00
2024-05-09T01:24:06.653Z,510.00
2024-05-09T01:25:06.684Z,511.00
2024-05-09T01:26:06.743Z,506.00
2024-05-09T01:27:06.692Z,502.00
2024-05-09T01:28:06.684Z,502.00
2024-05-09T01:29:06.712Z,501.00
2024-05-09T01:30:09.561Z,502.00
2024-05-09T01:31:07.700Z,504.00
2024-05-09T01:32:06.807Z,504.00
2024-05-09T01:33:08.892Z,505.00
2024-05-09T01:34:06.771Z,502.00
2024-05-09T01:35:06.764Z,502.00
2024-05-09T01:36:06.707Z,504.00
2024-05-09T01:37:06.704Z,504.00
2024-05-09T01:38:06.883Z,506.00
2024-05-09T01:39:06.720Z,509.00
2024-05-09T01:40:09.731Z,507.00
2024-05-09T01:41:07.746Z,508.00
2024-05-09T01:42:06.741Z,504.00
2024-05-09T01:43:06.903Z,503.00
2024-05-09T01:44:06.709Z,503.00
2024-05-09T01:45:06.685Z,504.00
2024-05-09T01:46:06.755Z,504.00
2024-05-09T01:47:06.902Z,503.00
2024-05-09T01:48:07.047Z,503.00
2024-05-09T01:49:06.950Z,502.00
2024-05-09T01:50:08.954Z,505.00
2024-05-09T01:51:06.841Z,503.00
2024-05-09T01:52:06.762Z,502.00
2024-05-09T01:53:06.843Z,499.00
2024-05-09T01:54:06.757Z,503.00
2024-05-09T01:55:07.058Z,505.00
2024-05-09T01:56:06.805Z,506.00
2024-05-09T01:57:06.792Z,507.00
2024-05-09T01:58:06.760Z,505.00
2024-05-09T01:59:06.861Z,506.00
2024-05-09T02:00:07.943Z,504.00
2024-05-09T02:01:06.819Z,505.00
2024-05-09T02:02:06.934Z,503.00
2024-05-09T02:03:06.989Z,502.00
2024-05-09T02:04:07.117Z,501.00
2024-05-09T02:05:07.060Z,499.00
2024-05-09T02:06:06.975Z,497.00
2024-05-09T02:07:06.818Z,499.00
2024-05-09T02:08:06.817Z,500.00
2024-05-09T02:09:06.772Z,498.00
2024-05-09T02:10:13.742Z,501.00
2024-05-09T02:11:07.867Z,502.00
2024-05-09T02:12:06.992Z,501.00
2024-05-09T02:13:06.786Z,500.00
2024-05-09T02:14:06.811Z,504.00
2024-05-09T02:15:06.800Z,505.00
2024-05-09T02:16:06.830Z,504.00
2024-05-09T02:17:06.949Z,507.00
2024-05-09T02:18:07.146Z,505.00
2024-05-09T02:19:06.903Z,505.00
2024-05-09T02:20:10.782Z,506.00
2024-05-09T02:21:07.850Z,506.00
2024-05-09T02:22:06.861Z,508.00
2024-05-09T02:23:07.282Z,510.00
2024-05-09T02:24:06.842Z,508.00
2024-05-09T02:25:06.828Z,512.00
2024-05-09T02:26:06.914Z,510.00
2024-05-09T02:27:06.862Z,509.00
2024-05-09T02:28:06.833Z,510.00
2024-05-09T02:29:06.863Z,509.00
2024-05-09T02:30:18.322Z,509.00
2024-05-09T02:31:07.843Z,508.00
2024-05-09T02:32:07.004Z,510.00
2024-05-09T02:33:07.358Z,506.00
2024-05-09T02:34:06.931Z,505.00
2024-05-09T02:35:06.915Z,507.00
2024-05-09T02:36:06.894Z,506.00
2024-05-09T02:37:07.003Z,509.00
2024-05-09T02:38:06.975Z,513.00
2024-05-09T02:39:06.882Z,511.00
2024-05-09T02:40:09.330Z,511.00
2024-05-09T02:41:07.067Z,509.00
2024-05-09T02:42:06.898Z,509.00
2024-05-09T02:43:07.294Z,509.00
2024-05-09T02:44:06.978Z,505.00
2024-05-09T02:45:06.906Z,505.00
2024-05-09T02:46:06.910Z,506.00
2024-05-09T02:47:07.266Z,508.00
2024-05-09T02:48:07.184Z,505.00
2024-05-09T02:49:07.058Z,506.00
2024-05-09T02:50:08.236Z,508.00
2024-05-09T02:51:07.114Z,508.00
2024-05-09T02:52:06.934Z,508.00
2024-05-09T02:53:07.080Z,507.00
2024-05-09T02:54:06.965Z,506.00
2024-05-09T02:55:06.976Z,509.00
2024-05-09T02:56:07.109Z,510.00
2024-05-09T02:57:07.087Z,510.00
2024-05-09T02:58:07.107Z,507.00
2024-05-09T02:59:07.194Z,508.00
2024-05-09T03:00:14.966Z,506.00
2024-05-09T03:01:08.290Z,507.00
2024-05-09T03:02:07.328Z,506.00
2024-05-09T03:03:07.658Z,508.00
2024-05-09T03:04:07.346Z,511.00
2024-05-09T03:05:07.244Z,513.00
2024-05-09T03:06:07.256Z,511.00
2024-05-09T03:07:07.346Z,508.00
2024-05-09T03:08:07.329Z,507.00
2024-05-09T03:09:07.295Z,503.00
2024-05-09T03:10:14.583Z,506.00
2024-05-09T03:11:08.421Z,507.00
2024-05-09T03:12:07.378Z,505.00
2024-05-09T03:13:07.272Z,506.00
2024-05-09T03:14:07.294Z,507.00
2024-05-09T03:15:07.279Z,507.00
2024-05-09T03:16:07.286Z,506.00
2024-05-09T03:17:07.429Z,507.00
2024-05-09T03:18:07.717Z,508.00
2024-05-09T03:19:07.361Z,507.00
2024-05-09T03:20:16.985Z,507.00
2024-05-09T03:21:08.472Z,509.00
2024-05-09T03:22:07.297Z,509.00
2024-05-09T03:23:07.535Z,509.00
2024-05-09T03:24:07.293Z,508.00
2024-05-09T03:25:07.284Z,508.00
2024-05-09T03:26:07.341Z,508.00
2024-05-09T03:27:07.298Z,508.00
2024-05-09T03:28:07.390Z,508.00
2024-05-09T03:29:07.329Z,506.00
2024-05-09T03:30:07.613Z,508.00
2024-05-09T03:31:07.268Z,506.00
2024-05-09T03:32:07.410Z,505.00
2024-05-09T03:33:07.593Z,504.00
2024-05-09T03:34:07.556Z,504.00
2024-05-09T03:35:07.510Z,505.00
2024-05-09T03:36:10.957Z,506.00
2024-05-09T03:37:07.595Z,507.00
2024-05-09T03:38:07.601Z,508.00
2024-05-09T03:39:07.562Z,508.00
2024-05-09T03:40:11.788Z,505.00
2024-05-09T03:41:08.675Z,503.00
2024-05-09T03:42:07.570Z,502.00
2024-05-09T03:43:07.542Z,502.00
2024-05-09T03:44:07.582Z,502.00
2024-05-09T03:45:07.574Z,503.00
2024-05-09T03:46:07.598Z,507.00
2024-05-09T03:47:07.672Z,505.00
2024-05-09T03:48:07.861Z,505.00
2024-05-09T03:49:07.686Z,504.00
2024-05-09T03:50:15.214Z,505.00
2024-05-09T03:51:08.748Z,501.00
2024-05-09T03:52:07.620Z,500.00
2024-05-09T03:53:07.630Z,500.00
2024-05-09T03:54:07.594Z,499.00
2024-05-09T03:55:07.600Z,499.00
2024-05-09T03:56:07.667Z,503.00
2024-05-09T03:57:07.667Z,501.00
2024-05-09T03:58:07.629Z,502.00
2024-05-09T03:59:07.639Z,503.00
2024-05-09T04:00:14.771Z,503.00
2024-05-09T04:01:08.733Z,504.00
2024-05-09T04:02:07.735Z,507.00
2024-05-09T04:03:10.171Z,508.00
2024-05-09T04:04:07.674Z,511.00
2024-05-09T04:05:07.663Z,514.00
2024-05-09T04:06:07.656Z,511.00
2024-05-09T04:07:07.619Z,509.00
2024-05-09T04:08:07.764Z,508.00
2024-05-09T04:09:07.666Z,509.00
2024-05-09T04:10:11.163Z,510.00
2024-05-09T04:11:08.732Z,510.00
2024-05-09T04:12:07.777Z,508.00
2024-05-09T04:13:07.665Z,510.00
2024-05-09T04:14:07.680Z,510.00
2024-05-09T04:15:11.228Z,511.00
2024-05-09T04:16:08.655Z,509.00
2024-05-09T04:17:15.928Z,501.00
2024-05-09T04:18:15.905Z,498.00
2024-05-09T04:19:16.095Z,496.00
2024-05-09T04:20:28.262Z,498.00
2024-05-09T04:21:16.933Z,499.00
2024-05-09T04:22:15.882Z,500.00
2024-05-09T04:23:15.907Z,501.00
2024-05-09T04:24:15.855Z,500.00
2024-05-09T04:25:15.853Z,501.00
2024-05-09T04:26:15.897Z,501.00
2024-05-09T04:27:15.891Z,499.00
2024-05-09T04:28:15.890Z,499.00
2024-05-09T04:29:15.908Z,498.00
2024-05-09T04:30:25.360Z,494.00
2024-05-09T04:31:27.997Z,490.00
2024-05-09T04:32:28.191Z,490.00
2024-05-09T04:33:28.143Z,491.00
2024-05-09T04:34:28.057Z,497.00
2024-05-09T04:35:28.089Z,499.00
2024-05-09T04:36:27.972Z,497.00
2024-05-09T04:37:27.984Z,497.00
2024-05-09T04:38:27.958Z,498.00
2024-05-09T04:39:27.941Z,497.00
2024-05-09T04:40:33.421Z,499.00
2024-05-09T04:41:29.111Z,496.00
2024-05-09T04:42:27.960Z,496.00
2024-05-09T04:43:27.963Z,497.00
2024-05-09T04:44:28.118Z,498.00
2024-05-09T04:45:27.980Z,499.00
2024-05-09T04:46:27.955Z,498.00
2024-05-09T04:47:28.183Z,497.00
2024-05-09T04:48:28.224Z,499.00
2024-05-09T04:49:28.047Z,498.00
2024-05-09T04:50:35.966Z,494.00
2024-05-09T04:51:28.971Z,493.00
2024-05-09T04:52:27.991Z,492.00
2024-05-09T04:53:27.994Z,493.00
2024-05-09T04:54:34.294Z,494.00
2024-05-09T04:55:28.985Z,496.00
2024-05-09T04:56:28.064Z,496.00
2024-05-09T04:57:28.008Z,498.00
2024-05-09T04:58:28.028Z,499.00
2024-05-09T04:59:28.176Z,498.00
2024-05-09T05:00:35.595Z,500.00
2024-05-09T05:01:29.060Z,501.00
2024-05-09T05:02:28.080Z,502.00
2024-05-09T05:03:28.197Z,501.00
2024-05-09T05:04:28.032Z,499.00
2024-05-09T05:05:28.038Z,498.00
2024-05-09T05:06:28.043Z,496.00
2024-05-09T05:07:28.031Z,496.00
2024-05-09T05:08:28.080Z,498.00
2024-05-09T05:09:28.006Z,497.00
2024-05-09T05:10:33.676Z,496.00
2024-05-09T05:11:29.151Z,497.00
2024-05-09T05:12:28.242Z,497.00
2024-05-09T05:13:27.983Z,499.00
2024-05-09T05:14:28.174Z,502.00
2024-05-09T05:15:28.004Z,503.00
2024-05-09T05:16:28.005Z,502.00
2024-05-09T05:17:28.142Z,500.00
2024-05-09T05:18:28.472Z,497.00
2024-05-09T05:19:28.217Z,500.00
2024-05-09T05:20:33.423Z,500.00
2024-05-09T05:21:29.073Z,501.00
2024-05-09T05:22:28.030Z,500.00
2024-05-09T05:23:28.159Z,497.00
2024-05-09T05:24:28.009Z,499.00
2024-05-09T05:25:28.007Z,499.00
2024-05-09T05:26:28.050Z,501.00
2024-05-09T05:27:28.022Z,501.00
2024-05-09T05:28:28.022Z,501.00
2024-05-09T05:29:28.091Z,501.00
2024-05-09T05:30:32.802Z,501.00
2024-05-09T05:31:29.060Z,505.00
2024-05-09T05:32:28.285Z,503.00
2024-05-09T05:33:28.355Z,502.00
2024-05-09T05:34:28.046Z,500.00
2024-05-09T05:35:28.232Z,501.00
2024-05-09T05:36:28.029Z,501.00
2024-05-09T05:37:28.091Z,502.00
2024-05-09T05:38:28.666Z,502.00
2024-05-09T05:39:28.058Z,503.00
2024-05-09T05:40:35.534Z,504.00
2024-05-09T05:41:29.252Z,504.00
2024-05-09T05:42:28.077Z,505.00
2024-05-09T05:43:28.098Z,506.00
2024-05-09T05:44:28.114Z,506.00
2024-05-09T05:45:28.074Z,505.00
2024-05-09T05:46:28.097Z,502.00
2024-05-09T05:47:28.305Z,504.00
2024-05-09T05:48:28.326Z,502.00
2024-05-09T05:49:28.259Z,502.00
2024-05-09T05:50:35.411Z,502.00
2024-05-09T05:51:29.110Z,501.00
2024-05-09T05:52:28.133Z,503.00
2024-05-09T05:53:28.098Z,501.00
2024-05-09T05:54:28.099Z,498.00
2024-05-09T05:55:28.101Z,498.00
2024-05-09T05:56:28.225Z,498.00
2024-05-09T05:57:28.119Z,499.00
2024-05-09T05:58:28.126Z,498.00
2024-05-09T05:59:28.151Z,497.00
2024-05-09T06:00:34.740Z,498.00
2024-05-09T06:01:29.314Z,498.00
2024-05-09T06:02:28.210Z,498.00
2024-05-09T06:03:28.127Z,498.00
2024-05-09T06:04:28.177Z,499.00
2024-05-09T06:05:28.160Z,500.00
2024-05-09T06:06:28.118Z,505.00
2024-05-09T06:07:28.133Z,506.00
2024-05-09T06:08:30.310Z,509.00
2024-05-09T06:09:28.211Z,511.00
2024-05-09T06:10:35.124Z,510.00
2024-05-09T06:11:29.381Z,512.00
2024-05-09T06:12:28.347Z,511.00
2024-05-09T06:13:28.187Z,511.00
2024-05-09T06:14:28.284Z,510.00
2024-05-09T06:15:28.218Z,510.00
2024-05-09T06:16:28.216Z,510.00
2024-05-09T06:17:28.426Z,514.00
2024-05-09T06:18:28.448Z,514.00
2024-05-09T06:19:28.463Z,513.00
2024-05-09T06:20:35.247Z,516.00
2024-05-09T06:21:29.263Z,514.00
2024-05-09T06:22:28.214Z,512.00
2024-05-09T06:23:28.324Z,512.00
2024-05-09T06:24:28.239Z,510.00
2024-05-09T06:25:28.233Z,513.00
2024-05-09T06:26:28.253Z,514.00
2024-05-09T06:27:28.275Z,515.00
2024-05-09T06:28:28.240Z,514.00
2024-05-09T06:29:28.399Z,514.00
2024-05-09T06:30:36.969Z,513.00
2024-05-09T06:31:29.412Z,510.00
2024-05-09T06:32:28.419Z,512.00
2024-05-09T06:33:28.611Z,511.00
2024-05-09T06:34:28.316Z,512.00
2024-05-09T06:35:28.422Z,511.00
2024-05-09T06:36:28.282Z,511.00
2024-05-09T06:37:28.653Z,509.00
2024-05-09T06:38:28.360Z,509.00
2024-05-09T06:39:28.291Z,511.00
2024-05-09T06:40:36.486Z,509.00
2024-05-09T06:41:29.361Z,510.00
2024-05-09T06:42:28.326Z,509.00
2024-05-09T06:43:28.326Z,508.00
2024-05-09T06:44:28.519Z,509.00
2024-05-09T06:45:28.295Z,509.00
2024-05-09T06:46:28.294Z,506.00
2024-05-09T06:47:28.560Z,506.00
2024-05-09T06:48:28.448Z,502.00
2024-05-09T06:49:28.460Z,501.00
2024-05-09T06:50:35.281Z,504.00
2024-05-09T06:51:29.316Z,505.00
2024-05-09T06:52:28.327Z,506.00
2024-05-09T06:53:28.413Z,506.00
2024-05-09T06:54:28.316Z,505.00
2024-05-09T06:55:28.332Z,504.00
2024-05-09T06:56:28.362Z,503.00
2024-05-09T06:57:28.321Z,502.00
2024-05-09T06:58:28.327Z,502.00
2024-05-09T06:59:28.550Z,504.00
2024-05-09T07:00:35.717Z,501.00
2024-05-09T07:01:29.349Z,501.00
2024-05-09T07:02:28.437Z,501.00
2024-05-09T07:03:28.409Z,499.00
2024-05-09T07:04:28.434Z,496.00
2024-05-09T07:05:28.446Z,496.00
2024-05-09T07:06:28.362Z,496.00
2024-05-09T07:07:28.329Z,495.00
2024-05-09T07:08:28.365Z,495.00
2024-05-09T07:09:28.347Z,494.00
2024-05-09T07:10:34.122Z,495.00
2024-05-09T07:11:29.454Z,496.00
2024-05-09T07:12:28.483Z,496.00
2024-05-09T07:13:28.415Z,497.00
2024-05-09T07:14:28.508Z,497.00
2024-05-09T07:15:28.394Z,499.00
2024-05-09T07:16:28.406Z,497.00
2024-05-09T07:17:28.528Z,497.00
2024-05-09T07:18:28.496Z,495.00
2024-05-09T07:19:28.485Z,493.00
2024-05-09T07:20:34.367Z,495.00
2024-05-09T07:21:29.408Z,496.00
2024-05-09T07:22:28.394Z,494.00
2024-05-09T07:23:28.447Z,496.00
2024-05-09T07:24:28.374Z,497.00
2024-05-09T07:25:28.385Z,497.00
2024-05-09T07:26:28.431Z,497.00
2024-05-09T07:27:28.398Z,491.00
2024-05-09T07:28:28.404Z,493.00
2024-05-09T07:29:28.493Z,495.00
2024-05-09T07:30:33.328Z,498.00
2024-05-09T07:31:29.401Z,497.00
2024-05-09T07:32:28.576Z,497.00
2024-05-09T07:33:28.737Z,498.00
2024-05-09T07:34:28.470Z,498.00
2024-05-09T07:35:28.592Z,498.00
2024-05-09T07:36:28.429Z,498.00
2024-05-09T07:37:28.418Z,498.00
2024-05-09T07:38:28.439Z,499.00
2024-05-09T07:39:28.409Z,495.00
2024-05-09T07:40:34.950Z,493.00
2024-05-09T07:41:29.543Z,488.00
2024-05-09T07:42:28.426Z,479.00
2024-05-09T07:43:28.448Z,478.00
2024-05-09T07:44:28.569Z,481.00
2024-05-09T07:45:45.016Z,485.00
2024-05-09T07:47:36.926Z,486.00
2024-05-09T07:48:57.283Z,488.00
2024-05-09T07:50:01.154Z,489.00
2024-05-09T07:53:32.478Z,490.00
2024-05-09T07:53:40.066Z,491.00
2024-05-09T07:54:29.646Z,492.00
2024-05-09T07:55:28.631Z,494.00
2024-05-09T07:56:28.691Z,490.00
2024-05-09T07:57:28.547Z,492.00
2024-05-09T07:58:28.502Z,490.00
2024-05-09T07:59:28.492Z,488.00
2024-05-09T08:00:31.534Z,491.00
2024-05-09T08:01:28.795Z,492.00
2024-05-09T08:02:28.678Z,495.00
2024-05-09T08:03:28.704Z,496.00
2024-05-09T08:04:28.536Z,496.00
2024-05-09T08:05:28.632Z,495.00
2024-05-09T08:06:28.555Z,494.00
2024-05-09T08:07:28.478Z,493.00
2024-05-09T08:08:28.506Z,495.00
2024-05-09T08:09:28.494Z,495.00
2024-05-09T08:10:29.248Z,496.00
2024-05-09T08:11:28.511Z,491.00
2024-05-09T08:12:28.517Z,488.00
2024-05-09T08:13:28.659Z,489.00
2024-05-09T08:14:28.514Z,490.00
2024-05-09T08:15:28.759Z,489.00
2024-05-09T08:16:28.804Z,489.00
2024-05-09T08:17:28.827Z,489.00
2024-05-09T08:18:29.199Z,488.00
2024-05-09T08:19:28.974Z,490.00
2024-05-09T08:20:33.517Z,492.00
2024-05-09T08:21:30.087Z,493.00
2024-05-09T08:22:29.078Z,493.00
2024-05-09T08:23:29.104Z,493.00
2024-05-09T08:24:29.096Z,492.00
2024-05-09T08:25:29.030Z,493.00
2024-05-09T08:26:29.064Z,493.00
2024-05-09T08:27:29.119Z,493.00
2024-05-09T08:28:29.134Z,494.00
2024-05-09T08:29:29.070Z,494.00
2024-05-09T08:30:33.878Z,494.00
2024-05-09T08:31:30.158Z,494.00
2024-05-09T08:32:29.146Z,498.00
2024-05-09T08:33:29.290Z,498.00
2024-05-09T08:34:29.151Z,497.00
2024-05-09T08:35:29.121Z,498.00
2024-05-09T08:36:29.160Z,498.00
2024-05-09T08:37:32.858Z,497.00
2024-05-09T08:38:30.079Z,496.00
2024-05-09T08:39:29.145Z,494.00
2024-05-09T08:40:34.567Z,495.00
2024-05-09T08:41:30.118Z,495.00
2024-05-09T08:42:29.140Z,495.00
2024-05-09T08:43:29.186Z,497.00
2024-05-09T08:44:29.086Z,496.00
2024-05-09T08:45:29.132Z,495.00
2024-05-09T08:46:29.259Z,492.00
2024-05-09T08:47:29.239Z,489.00
2024-05-09T08:48:29.324Z,487.00
2024-05-09T08:49:29.223Z,488.00
2024-05-09T08:50:36.330Z,488.00
2024-05-09T08:51:30.134Z,487.00
2024-05-09T08:52:29.121Z,486.00
2024-05-09T08:53:29.132Z,486.00
2024-05-09T08:54:29.212Z,485.00
2024-05-09T08:55:29.122Z,486.00
2024-05-09T08:56:29.119Z,488.00
2024-05-09T08:57:29.141Z,486.00
2024-05-09T08:58:29.131Z,487.00
2024-05-09T08:59:29.123Z,486.00
2024-05-09T09:00:36.287Z,482.00
2024-05-09T09:01:30.243Z,480.00
2024-05-09T09:02:29.294Z,480.00
2024-05-09T09:03:30.988Z,481.00
2024-05-09T09:04:29.224Z,482.00
2024-05-09T09:05:29.344Z,481.00
2024-05-09T09:06:29.170Z,485.00
2024-05-09T09:07:29.293Z,485.00
2024-05-09T09:08:29.157Z,487.00
2024-05-09T09:09:29.203Z,484.00
2024-05-09T09:10:31.873Z,482.00
2024-05-09T09:11:29.248Z,484.00
2024-05-09T09:12:29.181Z,487.00
2024-05-09T09:13:29.167Z,486.00
2024-05-09T09:14:29.164Z,485.00
2024-05-09T09:15:29.226Z,485.00
2024-05-09T09:16:29.191Z,486.00
2024-05-09T09:17:29.200Z,489.00
2024-05-09T09:18:29.566Z,491.00
2024-05-09T09:19:29.223Z,492.00
2024-05-09T09:20:35.654Z,492.00
2024-05-09T09:21:30.171Z,492.00
2024-05-09T09:22:29.187Z,490.00
2024-05-09T09:23:29.184Z,489.00
2024-05-09T09:24:29.238Z,491.00
2024-05-09T09:25:29.180Z,490.00
2024-05-09T09:26:29.178Z,488.00
2024-05-09T09:27:29.228Z,493.00
2024-05-09T09:28:29.196Z,494.00
2024-05-09T09:29:29.176Z,493.00
2024-05-09T09:30:36.384Z,492.00
2024-05-09T09:31:30.240Z,494.00
2024-05-09T09:32:29.276Z,493.00
2024-05-09T09:33:29.319Z,492.00
2024-05-09T09:34:29.395Z,489.00
2024-05-09T09:35:29.216Z,489.00
2024-05-09T09:36:29.255Z,490.00
2024-05-09T09:37:29.209Z,490.00
2024-05-09T09:38:29.220Z,489.00
2024-05-09T09:39:29.281Z,488.00
2024-05-09T09:40:32.322Z,489.00
2024-05-09T09:41:29.206Z,490.00
2024-05-09T09:42:29.273Z,490.00
2024-05-09T09:43:29.239Z,491.00
2024-05-09T09:44:29.231Z,488.00
2024-05-09T09:45:29.263Z,486.00
2024-05-09T09:46:29.480Z,486.00
2024-05-09T09:47:29.278Z,484.00
2024-05-09T09:48:29.335Z,481.00
2024-05-09T09:49:29.321Z,480.00
2024-05-09T09:50:34.314Z,478.00
2024-05-09T09:51:30.271Z,481.00
2024-05-09T09:52:29.297Z,480.00
2024-05-09T09:53:29.214Z,480.00
2024-05-09T09:54:29.292Z,480.00
2024-05-09T09:55:29.222Z,478.00
2024-05-09T09:56:29.248Z,478.00
2024-05-09T09:57:29.347Z,481.00
2024-05-09T09:58:29.587Z,483.00
2024-05-09T09:59:29.385Z,482.00
2024-05-09T10:00:33.085Z,483.00
2024-05-09T10:01:29.352Z,481.00
2024-05-09T10:02:29.383Z,482.00
2024-05-09T10:03:29.467Z,482.00
2024-05-09T10:04:29.511Z,482.00
2024-05-09T10:05:29.727Z,483.00
2024-05-09T10:06:29.342Z,481.00
2024-05-09T10:07:29.280Z,478.00
2024-05-09T10:08:29.279Z,479.00
2024-05-09T10:09:29.341Z,481.00
2024-05-09T10:10:32.485Z,482.00
2024-05-09T10:11:29.387Z,481.00
2024-05-09T10:12:29.392Z,481.00
2024-05-09T10:13:29.402Z,480.00
2024-05-09T10:14:29.283Z,481.00
2024-05-09T10:15:29.429Z,485.00
2024-05-09T10:16:29.431Z,486.00
2024-05-09T10:17:29.368Z,486.00
2024-05-09T10:18:31.279Z,486.00
2024-05-09T10:19:29.423Z,484.00
2024-05-09T10:20:32.575Z,488.00
2024-05-09T10:21:29.386Z,487.00
2024-05-09T10:22:29.323Z,484.00
2024-05-09T10:23:29.417Z,484.00
2024-05-09T10:24:29.347Z,487.00
2024-05-09T10:25:29.369Z,488.00
2024-05-09T10:26:29.316Z,489.00
2024-05-09T10:27:29.386Z,487.00
2024-05-09T10:28:29.335Z,488.00
2024-05-09T10:29:29.303Z,488.00
2024-05-09T10:30:34.363Z,487.00
2024-05-09T10:31:30.340Z,486.00
2024-05-09T10:32:29.382Z,483.00
2024-05-09T10:33:29.440Z,483.00
2024-05-09T10:34:29.424Z,481.00
2024-05-09T10:35:29.353Z,481.00
2024-05-09T10:36:29.344Z,480.00
2024-05-09T10:37:29.413Z,481.00
2024-05-09T10:38:29.342Z,483.00
2024-05-09T10:39:29.381Z,481.00
2024-05-09T10:40:31.630Z,483.00
2024-05-09T10:41:29.334Z,483.00
2024-05-09T10:42:29.377Z,481.00
2024-05-09T10:43:29.429Z,481.00
2024-05-09T10:44:29.336Z,481.00
2024-05-09T10:45:29.418Z,478.00
2024-05-09T10:46:29.397Z,477.00
2024-05-09T10:47:29.435Z,478.00
2024-05-09T10:48:29.467Z,479.00
2024-05-09T10:49:29.385Z,476.00
2024-05-09T10:50:34.044Z,479.00
2024-05-09T10:51:30.404Z,482.00
2024-05-09T10:52:29.373Z,482.00
2024-05-09T10:53:29.390Z,482.00
2024-05-09T10:54:29.398Z,481.00
2024-05-09T10:55:29.369Z,481.00
2024-05-09T10:56:29.372Z,481.00
2024-05-09T10:57:29.444Z,480.00
2024-05-09T10:58:29.435Z,481.00
2024-05-09T10:59:29.422Z,478.00
2024-05-09T11:00:33.864Z,475.00
2024-05-09T11:01:30.526Z,474.00
2024-05-09T11:02:29.474Z,470.00
2024-05-09T11:03:29.671Z,470.00
2024-05-09T11:04:29.505Z,473.00
2024-05-09T11:05:29.509Z,474.00
2024-05-09T11:06:29.502Z,474.00
2024-05-09T11:07:29.491Z,477.00
2024-05-09T11:08:29.442Z,481.00
2024-05-09T11:09:29.476Z,481.00
2024-05-09T11:10:33.787Z,482.00
2024-05-09T11:11:30.465Z,482.00
2024-05-09T11:12:29.437Z,479.00
2024-05-09T11:13:29.441Z,479.00
2024-05-09T11:14:29.437Z,477.00
2024-05-09T11:15:29.515Z,479.00
2024-05-09T11:16:29.464Z,480.00
2024-05-09T11:17:29.504Z,478.00
2024-05-09T11:18:31.894Z,476.00
2024-05-09T11:19:30.549Z,475.00
2024-05-09T11:20:30.199Z,475.00
2024-05-09T11:21:29.504Z,477.00
2024-05-09T11:22:29.482Z,477.00
2024-05-09T11:23:29.516Z,476.00
2024-05-09T11:24:29.526Z,478.00
2024-05-09T11:25:29.468Z,479.00
2024-05-09T11:26:29.575Z,479.00
2024-05-09T11:27:29.511Z,477.00
2024-05-09T11:28:29.476Z,474.00
2024-05-09T11:29:29.465Z,476.00
2024-05-09T11:30:32.065Z,476.00
2024-05-09T11:31:29.624Z,476.00
2024-05-09T11:32:29.747Z,478.00
2024-05-09T11:33:29.610Z,481.00
2024-05-09T11:34:29.508Z,480.00
2024-05-09T11:35:29.522Z,481.00
2024-05-09T11:36:29.488Z,479.00
2024-05-09T11:37:29.582Z,478.00
2024-05-09T11:38:29.509Z,478.00
2024-05-09T11:39:29.556Z,480.00
2024-05-09T11:40:34.201Z,482.00
2024-05-09T11:41:30.481Z,481.00
2024-05-09T11:42:29.465Z,478.00
2024-05-09T11:43:29.549Z,476.00
2024-05-09T11:44:29.462Z,474.00
2024-05-09T11:45:29.528Z,472.00
2024-05-09T11:46:29.571Z,472.00
2024-05-09T11:47:29.534Z,471.00
2024-05-09T11:48:29.625Z,470.00
2024-05-09T11:49:29.583Z,471.00
2024-05-09T11:50:32.967Z,470.00
2024-05-09T11:51:30.592Z,469.00
2024-05-09T11:52:29.522Z,470.00
2024-05-09T11:53:29.557Z,473.00
2024-05-09T11:54:29.505Z,471.00
2024-05-09T11:55:29.611Z,472.00
2024-05-09T11:56:29.517Z,473.00
2024-05-09T11:57:29.549Z,474.00
2024-05-09T11:58:29.566Z,476.00
2024-05-09T11:59:29.537Z,478.00
2024-05-09T12:00:36.508Z,479.00
2024-05-09T12:01:30.660Z,481.00
2024-05-09T12:02:29.646Z,482.00
2024-05-09T12:03:29.601Z,481.00
2024-05-09T12:04:29.714Z,481.00
2024-05-09T12:05:29.667Z,479.00
2024-05-09T12:06:30.241Z,480.00
2024-05-09T12:07:29.573Z,479.00
2024-05-09T12:08:29.612Z,480.00
2024-05-09T12:09:29.665Z,480.00
2024-05-09T12:11:29.663Z,479.00
2024-05-09T12:12:29.672Z,477.00
2024-05-09T12:13:29.636Z,477.00
2024-05-09T12:14:29.663Z,479.00
2024-05-09T12:15:29.768Z,479.00
2024-05-09T12:16:29.966Z,478.00
2024-05-09T12:17:29.957Z,478.00
2024-05-09T12:18:30.071Z,477.00
2024-05-09T12:19:30.058Z,475.00
2024-05-09T12:20:36.230Z,475.00
2024-05-09T12:21:31.184Z,475.00
2024-05-09T12:22:30.068Z,476.00
2024-05-09T12:23:30.116Z,478.00
2024-05-09T12:24:30.107Z,479.00
2024-05-09T12:25:30.090Z,480.00
2024-05-09T12:26:30.087Z,479.00
2024-05-09T12:27:30.093Z,481.00
2024-05-09T12:28:30.152Z,480.00
2024-05-09T12:29:30.086Z,480.00
2024-05-09T12:30:36.429Z,481.00
2024-05-09T12:31:31.223Z,482.00
2024-05-09T12:32:30.136Z,481.00